sensor_id;sensor_type;location;lat;lon;timestamp;pressure;altitude;pressure_sealevel;temperature;humidity
9764;BME280;4921;43.214;27.936;2023-11-21T00:00:18;100796.28;;;9.87;100.00
9764;BME280;4921;43.214;27.936;2023-11-21T00:02:47;100796.72;;;9.81;100.00
9764;BME280;4921;43.214;27.936;2023-11-21T00:05:14;100808.78;;;9.84;100.00
9764;BME280;4921;43.214;27.936;2023-11-21T00:07:42;100802.75;;;9.94;100.00
9764;BME280;4921;43.214;27.936;2023-11-21T00:10:10;100811.66;;;10.05;100.00
9764;BME280;4921;43.214;27.936;2023-11-21T00:12:37;100815.66;;;9.97;100.00
9764;BME280;4921;43.214;27.936;2023-11-21T00:15:08;100818.44;;;10.07;100.00
9764;BME280;4921;43.214;27.936;2023-11-21T00:17:36;100818.16;;;9.99;100.00
9764;BME280;4921;43.214;27.936;2023-11-21T00:20:06;100814.22;;;9.93;100.00
9764;BME280;4921;43.214;27.936;2023-11-21T00:22:34;100817.69;;;9.94;100.00
9764;BME280;4921;43.214;27.936;2023-11-21T00:25:01;100821.09;;;9.83;100.00
9764;BME280;4921;43.214;27.936;2023-11-21T00:27:29;100824.00;;;9.68;100.00
9764;BME280;4921;43.214;27.936;2023-11-21T00:29:56;100829.00;;;9.47;100.00
9764;BME280;4921;43.214;27.936;2023-11-21T00:32:23;100827.94;;;9.50;100.00
9764;BME280;4921;43.214;27.936;2023-11-21T00:35:09;100829.44;;;9.41;100.00
9764;BME280;4921;43.214;27.936;2023-11-21T00:37:36;100820.41;;;9.45;100.00
9764;BME280;4921;43.214;27.936;2023-11-21T00:40:05;100810.03;;;9.44;100.00
9764;BME280;4921;43.214;27.936;2023-11-21T00:42:33;100818.38;;;9.25;100.00
9764;BME280;4921;43.214;27.936;2023-11-21T00:45:00;100816.88;;;9.21;100.00
9764;BME280;4921;43.214;27.936;2023-11-21T00:47:27;100828.06;;;9.12;100.00
9764;BME280;4921;43.214;27.936;2023-11-21T00:49:54;100820.78;;;9.15;100.00
9764;BME280;4921;43.214;27.936;2023-11-21T00:52:23;100828.13;;;9.10;100.00
9764;BME280;4921;43.214;27.936;2023-11-21T00:54:50;100824.78;;;9.08;100.00
9764;BME280;4921;43.214;27.936;2023-11-21T00:57:17;100827.41;;;9.08;100.00
9764;BME280;4921;43.214;27.936;2023-11-21T00:59:45;100829.09;;;9.09;100.00
9764;BME280;4921;43.214;27.936;2023-11-21T01:02:12;100821.00;;;9.12;100.00
9764;BME280;4921;43.214;27.936;2023-11-21T01:04:39;100819.03;;;9.03;100.00
9764;BME280;4921;43.214;27.936;2023-11-21T01:07:06;100820.50;;;9.07;100.00
9764;BME280;4921;43.214;27.936;2023-11-21T01:09:34;100816.06;;;9.20;100.00
9764;BME280;4921;43.214;27.936;2023-11-21T01:12:01;100824.00;;;9.32;100.00
9764;BME280;4921;43.214;27.936;2023-11-21T01:14:28;100816.56;;;9.26;100.00
9764;BME280;4921;43.214;27.936;2023-11-21T01:16:55;100823.72;;;9.23;100.00
9764;BME280;4921;43.214;27.936;2023-11-21T01:19:22;100817.22;;;9.16;100.00
9764;BME280;4921;43.214;27.936;2023-11-21T01:21:49;100821.72;;;9.14;100.00
9764;BME280;4921;43.214;27.936;2023-11-21T01:24:17;100821.22;;;9.22;100.00
9764;BME280;4921;43.214;27.936;2023-11-21T01:26:46;100821.53;;;9.17;100.00
9764;BME280;4921;43.214;27.936;2023-11-21T01:29:13;100821.81;;;9.26;100.00
9764;BME280;4921;43.214;27.936;2023-11-21T01:31:40;100816.75;;;9.35;100.00
9764;BME280;4921;43.214;27.936;2023-11-21T01:34:08;100824.75;;;9.34;100.00
9764;BME280;4921;43.214;27.936;2023-11-21T01:36:35;100811.63;;;9.21;100.00
9764;BME280;4921;43.214;27.936;2023-11-21T01:39:02;100812.47;;;9.21;100.00
9764;BME280;4921;43.214;27.936;2023-11-21T01:41:33;100817.41;;;9.26;100.00
9764;BME280;4921;43.214;27.936;2023-11-21T01:44:02;100813.41;;;9.33;100.00
9764;BME280;4921;43.214;27.936;2023-11-21T01:46:33;100809.03;;;9.21;100.00
9764;BME280;4921;43.214;27.936;2023-11-21T01:49:00;100783.13;;;9.04;100.00
9764;BME280;4921;43.214;27.936;2023-11-21T01:51:27;100810.19;;;9.17;100.00
9764;BME280;4921;43.214;27.936;2023-11-21T01:53:54;100815.75;;;9.25;100.00
9764;BME280;4921;43.214;27.936;2023-11-21T01:56:22;100807.88;;;9.25;100.00
9764;BME280;4921;43.214;27.936;2023-11-21T01:58:49;100797.72;;;9.20;100.00
9764;BME280;4921;43.214;27.936;2023-11-21T02:01:18;100797.31;;;9.14;100.00
9764;BME280;4921;43.214;27.936;2023-11-21T02:03:45;100796.78;;;9.09;100.00
9764;BME280;4921;43.214;27.936;2023-11-21T02:06:12;100792.41;;;8.97;100.00
9764;BME280;4921;43.214;27.936;2023-11-21T02:08:39;100802.47;;;9.03;100.00
9764;BME280;4921;43.214;27.936;2023-11-21T02:11:08;100801.81;;;8.99;100.00
9764;BME280;4921;43.214;27.936;2023-11-21T02:13:38;100798.59;;;8.96;100.00
9764;BME280;4921;43.214;27.936;2023-11-21T02:16:05;100798.91;;;8.91;100.00
9764;BME280;4921;43.214;27.936;2023-11-21T02:18:33;100807.63;;;8.92;100.00
9764;BME280;4921;43.214;27.936;2023-11-21T02:21:00;100803.28;;;8.91;100.00
9764;BME280;4921;43.214;27.936;2023-11-21T02:23:29;100803.72;;;8.97;100.00
9764;BME280;4921;43.214;27.936;2023-11-21T02:25:56;100806.97;;;9.01;100.00
9764;BME280;4921;43.214;27.936;2023-11-21T02:28:23;100805.59;;;8.95;100.00
9764;BME280;4921;43.214;27.936;2023-11-21T02:30:52;100811.38;;;9.00;100.00
9764;BME280;4921;43.214;27.936;2023-11-21T02:33:22;100811.50;;;8.99;100.00
9764;BME280;4921;43.214;27.936;2023-11-21T02:35:49;100815.16;;;8.96;100.00
9764;BME280;4921;43.214;27.936;2023-11-21T02:38:20;100805.09;;;9.03;100.00
9764;BME280;4921;43.214;27.936;2023-11-21T02:40:48;100807.25;;;9.21;100.00
9764;BME280;4921;43.214;27.936;2023-11-21T02:43:15;100805.66;;;9.19;100.00
9764;BME280;4921;43.214;27.936;2023-11-21T02:45:42;100807.97;;;9.23;100.00
9764;BME280;4921;43.214;27.936;2023-11-21T02:48:09;100817.53;;;9.25;100.00
9764;BME280;4921;43.214;27.936;2023-11-21T02:50:36;100822.66;;;9.26;100.00
9764;BME280;4921;43.214;27.936;2023-11-21T02:53:04;100821.50;;;9.30;100.00
9764;BME280;4921;43.214;27.936;2023-11-21T02:55:31;100816.13;;;9.32;100.00
9764;BME280;4921;43.214;27.936;2023-11-21T02:58:02;100813.09;;;9.38;100.00
9764;BME280;4921;43.214;27.936;2023-11-21T03:00:29;100813.63;;;9.30;100.00
9764;BME280;4921;43.214;27.936;2023-11-21T03:02:56;100785.94;;;9.26;100.00
9764;BME280;4921;43.214;27.936;2023-11-21T03:05:23;100809.28;;;9.42;100.00
9764;BME280;4921;43.214;27.936;2023-11-21T03:07:50;100823.31;;;9.53;100.00
9764;BME280;4921;43.214;27.936;2023-11-21T03:10:17;100827.81;;;9.51;100.00
9764;BME280;4921;43.214;27.936;2023-11-21T03:12:44;100833.00;;;9.53;100.00
9764;BME280;4921;43.214;27.936;2023-11-21T03:15:13;100829.41;;;9.54;100.00
9764;BME280;4921;43.214;27.936;2023-11-21T03:17:40;100827.41;;;9.57;100.00
9764;BME280;4921;43.214;27.936;2023-11-21T03:20:08;100827.81;;;9.64;100.00
9764;BME280;4921;43.214;27.936;2023-11-21T03:22:36;100829.34;;;9.66;100.00
9764;BME280;4921;43.214;27.936;2023-11-21T03:25:05;100837.22;;;9.66;100.00
9764;BME280;4921;43.214;27.936;2023-11-21T03:27:36;100844.28;;;9.66;100.00
9764;BME280;4921;43.214;27.936;2023-11-21T03:30:05;100845.63;;;9.71;100.00
9764;BME280;4921;43.214;27.936;2023-11-21T03:32:34;100840.38;;;9.71;100.00
9764;BME280;4921;43.214;27.936;2023-11-21T03:35:02;100838.91;;;9.67;100.00
9764;BME280;4921;43.214;27.936;2023-11-21T03:37:29;100836.16;;;9.69;100.00
9764;BME280;4921;43.214;27.936;2023-11-21T03:39:56;100824.22;;;9.65;100.00
9764;BME280;4921;43.214;27.936;2023-11-21T03:42:23;100836.69;;;9.74;100.00
9764;BME280;4921;43.214;27.936;2023-11-21T03:44:51;100824.06;;;9.79;100.00
9764;BME280;4921;43.214;27.936;2023-11-21T03:47:18;100825.72;;;9.80;100.00
9764;BME280;4921;43.214;27.936;2023-11-21T03:49:47;100817.25;;;9.76;100.00
9764;BME280;4921;43.214;27.936;2023-11-21T03:52:14;100819.25;;;9.73;100.00
9764;BME280;4921;43.214;27.936;2023-11-21T03:54:41;100820.25;;;9.83;100.00
9764;BME280;4921;43.214;27.936;2023-11-21T03:57:08;100827.84;;;9.75;100.00
9764;BME280;4921;43.214;27.936;2023-11-21T03:59:36;100833.16;;;9.86;100.00
9764;BME280;4921;43.214;27.936;2023-11-21T04:02:03;100827.19;;;9.84;100.00
9764;BME280;4921;43.214;27.936;2023-11-21T04:04:30;100828.75;;;9.86;100.00
9764;BME280;4921;43.214;27.936;2023-11-21T04:06:59;100837.09;;;9.80;100.00
9764;BME280;4921;43.214;27.936;2023-11-21T04:09:26;100829.06;;;9.82;100.00
9764;BME280;4921;43.214;27.936;2023-11-21T04:11:53;100829.47;;;9.88;100.00
9764;BME280;4921;43.214;27.936;2023-11-21T04:14:21;100815.09;;;9.81;100.00
9764;BME280;4921;43.214;27.936;2023-11-21T04:16:49;100818.41;;;9.96;100.00
9764;BME280;4921;43.214;27.936;2023-11-21T04:19:15;100826.50;;;9.93;100.00
9764;BME280;4921;43.214;27.936;2023-11-21T04:21:43;100820.66;;;9.89;100.00
9764;BME280;4921;43.214;27.936;2023-11-21T04:24:11;100821.94;;;9.84;100.00
9764;BME280;4921;43.214;27.936;2023-11-21T04:26:38;100826.44;;;9.82;100.00
9764;BME280;4921;43.214;27.936;2023-11-21T04:29:05;100836.69;;;9.74;100.00
9764;BME280;4921;43.214;27.936;2023-11-21T04:31:32;100838.72;;;9.70;100.00
9764;BME280;4921;43.214;27.936;2023-11-21T04:33:59;100832.81;;;9.67;100.00
9764;BME280;4921;43.214;27.936;2023-11-21T04:36:26;100831.25;;;9.64;100.00
9764;BME280;4921;43.214;27.936;2023-11-21T04:38:53;100835.22;;;9.70;100.00
9764;BME280;4921;43.214;27.936;2023-11-21T04:41:21;100842.59;;;9.65;100.00
9764;BME280;4921;43.214;27.936;2023-11-21T04:43:48;100839.16;;;9.52;100.00
9764;BME280;4921;43.214;27.936;2023-11-21T04:46:15;100836.81;;;9.60;100.00
9764;BME280;4921;43.214;27.936;2023-11-21T04:48:42;100839.56;;;9.58;100.00
9764;BME280;4921;43.214;27.936;2023-11-21T04:51:09;100843.84;;;9.36;100.00
9764;BME280;4921;43.214;27.936;2023-11-21T04:53:37;100853.00;;;9.17;100.00
9764;BME280;4921;43.214;27.936;2023-11-21T04:56:05;100840.75;;;9.05;100.00
9764;BME280;4921;43.214;27.936;2023-11-21T04:58:33;100850.31;;;8.94;100.00
9764;BME280;4921;43.214;27.936;2023-11-21T05:01:01;100839.63;;;8.97;100.00
9764;BME280;4921;43.214;27.936;2023-11-21T05:03:28;100848.84;;;8.90;100.00
9764;BME280;4921;43.214;27.936;2023-11-21T05:05:56;100848.31;;;8.85;100.00
9764;BME280;4921;43.214;27.936;2023-11-21T05:08:25;100839.50;;;8.86;100.00
9764;BME280;4921;43.214;27.936;2023-11-21T05:10:52;100845.69;;;8.85;100.00
9764;BME280;4921;43.214;27.936;2023-11-21T05:13:19;100847.56;;;8.83;100.00
9764;BME280;4921;43.214;27.936;2023-11-21T05:15:48;100847.56;;;8.83;100.00
9764;BME280;4921;43.214;27.936;2023-11-21T05:18:16;100848.31;;;8.85;100.00
9764;BME280;4921;43.214;27.936;2023-11-21T05:20:43;100842.03;;;8.87;100.00
9764;BME280;4921;43.214;27.936;2023-11-21T05:23:10;100844.00;;;8.96;100.00
9764;BME280;4921;43.214;27.936;2023-11-21T05:25:37;100842.75;;;9.02;100.00
9764;BME280;4921;43.214;27.936;2023-11-21T05:28:04;100844.59;;;9.12;100.00
9764;BME280;4921;43.214;27.936;2023-11-21T05:30:32;100848.50;;;9.19;100.00
9764;BME280;4921;43.214;27.936;2023-11-21T05:33:00;100842.59;;;9.29;100.00
9764;BME280;4921;43.214;27.936;2023-11-21T05:35:27;100837.19;;;9.43;100.00
9764;BME280;4921;43.214;27.936;2023-11-21T05:37:54;100840.22;;;9.49;100.00
9764;BME280;4921;43.214;27.936;2023-11-21T05:40:21;100837.91;;;9.57;100.00
9764;BME280;4921;43.214;27.936;2023-11-21T05:42:48;100844.16;;;9.67;100.00
9764;BME280;4921;43.214;27.936;2023-11-21T05:45:17;100838.13;;;9.78;100.00
9764;BME280;4921;43.214;27.936;2023-11-21T05:47:45;100838.31;;;9.87;100.00
9764;BME280;4921;43.214;27.936;2023-11-21T05:50:14;100848.25;;;9.95;100.00
9764;BME280;4921;43.214;27.936;2023-11-21T05:52:42;100849.16;;;10.07;100.00
9764;BME280;4921;43.214;27.936;2023-11-21T05:55:09;100855.31;;;10.18;100.00
9764;BME280;4921;43.214;27.936;2023-11-21T05:57:37;100856.31;;;10.28;100.00
9764;BME280;4921;43.214;27.936;2023-11-21T06:00:06;100857.28;;;10.38;100.00
9764;BME280;4921;43.214;27.936;2023-11-21T06:02:38;100852.84;;;10.28;100.00
9764;BME280;4921;43.214;27.936;2023-11-21T06:05:06;100861.81;;;10.36;100.00
9764;BME280;4921;43.214;27.936;2023-11-21T06:07:35;100872.84;;;10.41;100.00
9764;BME280;4921;43.214;27.936;2023-11-21T06:10:02;100874.63;;;10.41;100.00
9764;BME280;4921;43.214;27.936;2023-11-21T06:12:32;100876.06;;;10.45;100.00
9764;BME280;4921;43.214;27.936;2023-11-21T06:15:01;100880.94;;;10.38;100.00
9764;BME280;4921;43.214;27.936;2023-11-21T06:17:30;100891.09;;;10.32;100.00
9764;BME280;4921;43.214;27.936;2023-11-21T06:19:57;100892.88;;;10.31;100.00
9764;BME280;4921;43.214;27.936;2023-11-21T06:22:24;100894.09;;;10.38;100.00
9764;BME280;4921;43.214;27.936;2023-11-21T06:24:53;100899.19;;;10.29;100.00
9764;BME280;4921;43.214;27.936;2023-11-21T06:27:19;100895.94;;;10.25;100.00
9764;BME280;4921;43.214;27.936;2023-11-21T06:29:46;100899.31;;;10.27;100.00
9764;BME280;4921;43.214;27.936;2023-11-21T06:32:13;100904.69;;;10.26;100.00
9764;BME280;4921;43.214;27.936;2023-11-21T06:34:42;100902.38;;;10.21;100.00
9764;BME280;4921;43.214;27.936;2023-11-21T06:37:09;100907.19;;;10.27;100.00
9764;BME280;4921;43.214;27.936;2023-11-21T06:39:37;100897.66;;;10.26;100.00
9764;BME280;4921;43.214;27.936;2023-11-21T06:42:06;100898.31;;;10.17;100.00
9764;BME280;4921;43.214;27.936;2023-11-21T06:44:33;100888.66;;;10.18;100.00
9764;BME280;4921;43.214;27.936;2023-11-21T06:47:01;100889.25;;;10.21;100.00
9764;BME280;4921;43.214;27.936;2023-11-21T06:49:28;100893.09;;;10.28;100.00
9764;BME280;4921;43.214;27.936;2023-11-21T06:51:56;100888.13;;;10.36;100.00
9764;BME280;4921;43.214;27.936;2023-11-21T06:54:24;100890.53;;;10.50;100.00
9764;BME280;4921;43.214;27.936;2023-11-21T06:56:51;100884.59;;;10.59;100.00
9764;BME280;4921;43.214;27.936;2023-11-21T06:59:20;100886.31;;;10.71;100.00
9764;BME280;4921;43.214;27.936;2023-11-21T07:01:47;100888.00;;;10.84;100.00
9764;BME280;4921;43.214;27.936;2023-11-21T07:04:14;100885.41;;;10.95;100.00
9764;BME280;4921;43.214;27.936;2023-11-21T07:06:41;100881.09;;;11.05;100.00
9764;BME280;4921;43.214;27.936;2023-11-21T07:09:09;100878.69;;;11.13;100.00
9764;BME280;4921;43.214;27.936;2023-11-21T07:11:37;100871.53;;;11.26;100.00
9764;BME280;4921;43.214;27.936;2023-11-21T07:14:04;100866.97;;;11.39;100.00
9764;BME280;4921;43.214;27.936;2023-11-21T07:16:34;100872.09;;;11.51;100.00
9764;BME280;4921;43.214;27.936;2023-11-21T07:19:03;100865.38;;;11.59;100.00
9764;BME280;4921;43.214;27.936;2023-11-21T07:21:31;100859.41;;;11.68;100.00
9764;BME280;4921;43.214;27.936;2023-11-21T07:23:59;100863.47;;;11.83;100.00
9764;BME280;4921;43.214;27.936;2023-11-21T07:26:26;100863.41;;;12.05;100.00
9764;BME280;4921;43.214;27.936;2023-11-21T07:28:53;100848.28;;;12.07;100.00
9764;BME280;4921;43.214;27.936;2023-11-21T07:31:21;100865.81;;;12.29;100.00
9764;BME280;4921;43.214;27.936;2023-11-21T07:33:50;100875.94;;;12.44;100.00
9764;BME280;4921;43.214;27.936;2023-11-21T07:36:18;100872.59;;;12.63;100.00
9764;BME280;4921;43.214;27.936;2023-11-21T07:38:46;100882.56;;;12.80;100.00
9764;BME280;4921;43.214;27.936;2023-11-21T07:41:13;100868.31;;;12.92;100.00
9764;BME280;4921;43.214;27.936;2023-11-21T07:43:43;100866.97;;;12.97;100.00
9764;BME280;4921;43.214;27.936;2023-11-21T07:46:10;100872.81;;;13.22;100.00
9764;BME280;4921;43.214;27.936;2023-11-21T07:48:38;100875.53;;;13.41;97.25
9764;BME280;4921;43.214;27.936;2023-11-21T07:51:06;100878.88;;;13.52;97.25
9764;BME280;4921;43.214;27.936;2023-11-21T07:53:34;100871.56;;;13.65;95.54
9764;BME280;4921;43.214;27.936;2023-11-21T07:56:03;100890.66;;;13.78;93.25
9764;BME280;4921;43.214;27.936;2023-11-21T07:58:30;100882.63;;;13.99;87.77
9764;BME280;4921;43.214;27.936;2023-11-21T08:00:59;100882.91;;;14.06;87.99
9764;BME280;4921;43.214;27.936;2023-11-21T08:03:26;100880.53;;;14.22;85.49
9764;BME280;4921;43.214;27.936;2023-11-21T08:05:53;100876.25;;;14.21;85.89
9764;BME280;4921;43.214;27.936;2023-11-21T08:08:21;100878.75;;;14.32;85.96
9764;BME280;4921;43.214;27.936;2023-11-21T08:10:49;100874.19;;;14.43;84.14
9764;BME280;4921;43.214;27.936;2023-11-21T08:13:22;100875.41;;;14.59;81.86
9764;BME280;4921;43.214;27.936;2023-11-21T08:15:49;100862.88;;;14.70;79.86
9764;BME280;4921;43.214;27.936;2023-11-21T08:18:16;100868.81;;;14.82;79.39
9764;BME280;4921;43.214;27.936;2023-11-21T08:20:43;100867.97;;;14.91;78.05
9764;BME280;4921;43.214;27.936;2023-11-21T08:23:14;100865.31;;;15.00;74.52
9764;BME280;4921;43.214;27.936;2023-11-21T08:25:44;100866.09;;;15.10;75.30
9764;BME280;4921;43.214;27.936;2023-11-21T08:28:11;100884.06;;;15.16;74.77
9764;BME280;4921;43.214;27.936;2023-11-21T08:30:39;100854.22;;;15.14;71.91
9764;BME280;4921;43.214;27.936;2023-11-21T08:33:07;100870.47;;;15.29;70.20
9764;BME280;4921;43.214;27.936;2023-11-21T08:35:35;100880.94;;;15.31;69.80
9764;BME280;4921;43.214;27.936;2023-11-21T08:38:02;100876.22;;;15.24;71.00
9764;BME280;4921;43.214;27.936;2023-11-21T08:40:30;100864.91;;;15.22;72.37
9764;BME280;4921;43.214;27.936;2023-11-21T08:42:58;100873.88;;;15.21;73.19
9764;BME280;4921;43.214;27.936;2023-11-21T08:45:25;100870.78;;;15.26;71.88
9764;BME280;4921;43.214;27.936;2023-11-21T08:47:52;100861.72;;;15.28;70.88
9764;BME280;4921;43.214;27.936;2023-11-21T08:50:20;100865.41;;;15.36;68.53
9764;BME280;4921;43.214;27.936;2023-11-21T08:52:48;100864.75;;;15.43;66.22
9764;BME280;4921;43.214;27.936;2023-11-21T08:55:15;100862.34;;;15.40;66.64
9764;BME280;4921;43.214;27.936;2023-11-21T08:57:43;100861.09;;;15.44;66.95
9764;BME280;4921;43.214;27.936;2023-11-21T09:00:13;100860.53;;;15.50;66.58
9764;BME280;4921;43.214;27.936;2023-11-21T09:02:42;100859.38;;;15.53;66.56
9764;BME280;4921;43.214;27.936;2023-11-21T09:05:10;100863.50;;;15.65;64.28
9764;BME280;4921;43.214;27.936;2023-11-21T09:07:38;100859.13;;;15.73;64.19
9764;BME280;4921;43.214;27.936;2023-11-21T09:10:07;100858.59;;;15.87;62.19
9764;BME280;4921;43.214;27.936;2023-11-21T09:12:34;100853.41;;;15.95;62.80
9764;BME280;4921;43.214;27.936;2023-11-21T09:15:03;100841.97;;;16.13;61.56
9764;BME280;4921;43.214;27.936;2023-11-21T09:17:32;100843.84;;;16.20;62.12
9764;BME280;4921;43.214;27.936;2023-11-21T09:19:59;100829.66;;;16.29;62.96
9764;BME280;4921;43.214;27.936;2023-11-21T09:22:26;100830.94;;;16.43;61.97
9764;BME280;4921;43.214;27.936;2023-11-21T09:24:55;100830.72;;;16.54;60.56
9764;BME280;4921;43.214;27.936;2023-11-21T09:27:24;100821.34;;;16.67;58.73
9764;BME280;4921;43.214;27.936;2023-11-21T09:29:51;100821.75;;;16.81;57.73
9764;BME280;4921;43.214;27.936;2023-11-21T09:32:19;100809.34;;;16.89;57.81
9764;BME280;4921;43.214;27.936;2023-11-21T09:34:48;100821.53;;;17.00;57.22
9764;BME280;4921;43.214;27.936;2023-11-21T09:37:15;100819.03;;;16.98;57.98
9764;BME280;4921;43.214;27.936;2023-11-21T09:39:42;100809.06;;;17.00;58.45
9764;BME280;4921;43.214;27.936;2023-11-21T09:42:12;100801.28;;;16.99;58.23
9764;BME280;4921;43.214;27.936;2023-11-21T09:44:45;100812.56;;;17.01;58.34
9764;BME280;4921;43.214;27.936;2023-11-21T09:47:15;100804.56;;;16.93;58.14
9764;BME280;4921;43.214;27.936;2023-11-21T09:49:46;100803.72;;;16.92;58.07
9764;BME280;4921;43.214;27.936;2023-11-21T09:52:22;100800.25;;;16.92;58.28
9764;BME280;4921;43.214;27.936;2023-11-21T09:54:52;100801.91;;;16.93;58.77
9764;BME280;4921;43.214;27.936;2023-11-21T09:57:20;100806.78;;;17.05;58.50
9764;BME280;4921;43.214;27.936;2023-11-21T09:59:51;100790.41;;;17.18;58.80
9764;BME280;4921;43.214;27.936;2023-11-21T10:02:20;100787.94;;;17.32;57.58
9764;BME280;4921;43.214;27.936;2023-11-21T10:04:51;100783.84;;;17.46;56.39
9764;BME280;4921;43.214;27.936;2023-11-21T10:07:20;100784.06;;;17.52;53.91
9764;BME280;4921;43.214;27.936;2023-11-21T10:09:47;100785.22;;;17.58;53.63
9764;BME280;4921;43.214;27.936;2023-11-21T10:12:15;100765.25;;;17.46;54.12
9764;BME280;4921;43.214;27.936;2023-11-21T10:14:43;100780.09;;;17.57;53.45
9764;BME280;4921;43.214;27.936;2023-11-21T10:17:14;100786.56;;;17.54;53.50
9764;BME280;4921;43.214;27.936;2023-11-21T10:19:46;100779.03;;;17.49;53.80
9764;BME280;4921;43.214;27.936;2023-11-21T10:22:14;100785.03;;;17.51;53.11
9764;BME280;4921;43.214;27.936;2023-11-21T10:24:44;100782.50;;;17.42;53.70
9764;BME280;4921;43.214;27.936;2023-11-21T10:27:11;100777.19;;;17.42;53.34
9764;BME280;4921;43.214;27.936;2023-11-21T10:29:39;100775.50;;;17.41;53.66
9764;BME280;4921;43.214;27.936;2023-11-21T10:32:07;100773.19;;;17.38;53.83
9764;BME280;4921;43.214;27.936;2023-11-21T10:34:35;100772.19;;;17.39;53.61
9764;BME280;4921;43.214;27.936;2023-11-21T10:37:11;100773.34;;;17.36;53.72
9764;BME280;4921;43.214;27.936;2023-11-21T10:39:39;100783.16;;;17.36;54.62
9764;BME280;4921;43.214;27.936;2023-11-21T10:42:09;100767.03;;;17.37;54.94
9764;BME280;4921;43.214;27.936;2023-11-21T10:44:36;100767.22;;;17.44;54.88
9764;BME280;4921;43.214;27.936;2023-11-21T10:47:03;100771.94;;;17.58;55.38
9764;BME280;4921;43.214;27.936;2023-11-21T10:49:30;100762.00;;;17.68;55.40
9764;BME280;4921;43.214;27.936;2023-11-21T10:51:57;100751.53;;;17.83;53.55
9764;BME280;4921;43.214;27.936;2023-11-21T10:54:25;100757.16;;;17.88;54.03
9764;BME280;4921;43.214;27.936;2023-11-21T10:56:56;100756.34;;;18.03;53.73
9764;BME280;4921;43.214;27.936;2023-11-21T10:59:27;100753.03;;;18.17;51.57
9764;BME280;4921;43.214;27.936;2023-11-21T11:01:58;100748.84;;;18.23;51.96
9764;BME280;4921;43.214;27.936;2023-11-21T11:04:27;100756.69;;;18.33;52.05
9764;BME280;4921;43.214;27.936;2023-11-21T11:06:55;100745.66;;;18.36;52.27
9764;BME280;4921;43.214;27.936;2023-11-21T11:09:23;100738.84;;;18.41;52.56
9764;BME280;4921;43.214;27.936;2023-11-21T11:11:51;100746.00;;;18.49;52.04
9764;BME280;4921;43.214;27.936;2023-11-21T11:14:19;100747.00;;;18.56;50.33
9764;BME280;4921;43.214;27.936;2023-11-21T11:16:53;100744.81;;;18.59;49.68
9764;BME280;4921;43.214;27.936;2023-11-21T11:19:21;100746.50;;;18.60;49.84
9764;BME280;4921;43.214;27.936;2023-11-21T11:22:07;100734.16;;;18.59;50.36
9764;BME280;4921;43.214;27.936;2023-11-21T11:24:55;100730.50;;;18.60;49.97
9764;BME280;4921;43.214;27.936;2023-11-21T11:27:36;100725.00;;;18.62;49.58
9764;BME280;4921;43.214;27.936;2023-11-21T11:30:14;100720.53;;;18.62;49.69
9764;BME280;4921;43.214;27.936;2023-11-21T11:32:51;100720.53;;;18.62;49.68
9764;BME280;4921;43.214;27.936;2023-11-21T11:35:26;100713.38;;;18.63;49.78
9764;BME280;4921;43.214;27.936;2023-11-21T11:37:58;100713.03;;;18.58;51.62
9764;BME280;4921;43.214;27.936;2023-11-21T11:40:38;100708.78;;;18.08;55.87
9764;BME280;4921;43.214;27.936;2023-11-21T11:43:06;100717.25;;;18.04;57.01
9764;BME280;4921;43.214;27.936;2023-11-21T11:45:34;100715.25;;;18.14;57.18
9764;BME280;4921;43.214;27.936;2023-11-21T11:48:10;100720.59;;;18.06;57.04
9764;BME280;4921;43.214;27.936;2023-11-21T11:50:42;100720.06;;;17.54;59.93
9764;BME280;4921;43.214;27.936;2023-11-21T11:53:33;100713.19;;;17.35;60.35
9764;BME280;4921;43.214;27.936;2023-11-21T11:56:19;100714.34;;;17.33;61.50
9764;BME280;4921;43.214;27.936;2023-11-21T11:58:49;100720.13;;;16.45;65.02
9764;BME280;4921;43.214;27.936;2023-11-21T12:01:17;100719.66;;;16.24;68.52
9764;BME280;4921;43.214;27.936;2023-11-21T12:04:25;100721.97;;;16.01;69.03
9764;BME280;4921;43.214;27.936;2023-11-21T12:07:02;100709.63;;;15.39;73.29
9764;BME280;4921;43.214;27.936;2023-11-21T12:09:30;100716.78;;;15.56;72.85
9764;BME280;4921;43.214;27.936;2023-11-21T12:11:58;100719.50;;;15.47;73.26
9764;BME280;4921;43.214;27.936;2023-11-21T12:14:25;100722.00;;;15.48;73.90
9764;BME280;4921;43.214;27.936;2023-11-21T12:16:53;100728.44;;;15.46;72.53
9764;BME280;4921;43.214;27.936;2023-11-21T12:19:21;100726.19;;;15.41;71.34
9764;BME280;4921;43.214;27.936;2023-11-21T12:21:49;100727.91;;;15.60;70.74
9764;BME280;4921;43.214;27.936;2023-11-21T12:24:17;100739.75;;;15.65;70.40
9764;BME280;4921;43.214;27.936;2023-11-21T12:26:44;100729.94;;;15.66;69.68
9764;BME280;4921;43.214;27.936;2023-11-21T12:29:11;100714.59;;;15.69;69.56
9764;BME280;4921;43.214;27.936;2023-11-21T12:31:38;100711.03;;;15.78;69.08
9764;BME280;4921;43.214;27.936;2023-11-21T12:34:06;100708.88;;;15.82;68.17
9764;BME280;4921;43.214;27.936;2023-11-21T12:36:38;100713.13;;;15.75;66.91
9764;BME280;4921;43.214;27.936;2023-11-21T12:39:05;100710.75;;;15.89;66.46
9764;BME280;4921;43.214;27.936;2023-11-21T12:41:34;100716.44;;;15.94;66.49
9764;BME280;4921;43.214;27.936;2023-11-21T12:44:01;100713.66;;;15.43;67.15
9764;BME280;4921;43.214;27.936;2023-11-21T12:46:28;100720.03;;;15.23;69.50
9764;BME280;4921;43.214;27.936;2023-11-21T12:48:58;100714.13;;;15.11;71.45
9764;BME280;4921;43.214;27.936;2023-11-21T12:51:25;100718.63;;;15.28;71.25
9764;BME280;4921;43.214;27.936;2023-11-21T12:53:54;100715.13;;;15.28;69.40
9764;BME280;4921;43.214;27.936;2023-11-21T12:56:21;100709.03;;;15.00;71.56
9764;BME280;4921;43.214;27.936;2023-11-21T12:58:50;100711.25;;;15.05;71.45
9764;BME280;4921;43.214;27.936;2023-11-21T13:01:25;100710.28;;;15.23;70.67
9764;BME280;4921;43.214;27.936;2023-11-21T13:03:53;100714.13;;;15.11;70.44